sensor_id;sensor_type;location;lat;lon;timestamp;temperature;humidity
32097;DHT22;18610;49.916;8.284;2023-04-23T00:01:06;12.00;99.90
32097;DHT22;18610;49.916;8.284;2023-04-23T00:03:33;12.00;99.90
32097;DHT22;18610;49.916;8.284;2023-04-23T00:06:04;12.10;99.90
32097;DHT22;18610;49.916;8.284;2023-04-23T00:08:32;12.00;99.90
32097;DHT22;18610;49.916;8.284;2023-04-23T00:11:01;12.00;99.90
32097;DHT22;18610;49.916;8.284;2023-04-23T00:13:28;12.00;99.90
32097;DHT22;18610;49.916;8.284;2023-04-23T00:15:55;12.10;99.90
32097;DHT22;18610;49.916;8.284;2023-04-23T00:18:22;12.10;99.90
32097;DHT22;18610;49.916;8.284;2023-04-23T00:20:48;12.10;99.90
32097;DHT22;18610;49.916;8.284;2023-04-23T00:23:15;12.10;99.90
32097;DHT22;18610;49.916;8.284;2023-04-23T00:25:42;12.10;99.90
32097;DHT22;18610;49.916;8.284;2023-04-23T00:28:10;12.00;99.90
32097;DHT22;18610;49.916;8.284;2023-04-23T00:30:36;12.00;99.90
32097;DHT22;18610;49.916;8.284;2023-04-23T00:33:03;12.10;99.90
32097;DHT22;18610;49.916;8.284;2023-04-23T00:35:30;12.10;99.90
32097;DHT22;18610;49.916;8.284;2023-04-23T00:37:57;12.10;99.90
32097;DHT22;18610;49.916;8.284;2023-04-23T00:40:23;12.10;99.90
32097;DHT22;18610;49.916;8.284;2023-04-23T00:42:51;12.10;99.90
32097;DHT22;18610;49.916;8.284;2023-04-23T00:45:19;12.10;99.90
32097;DHT22;18610;49.916;8.284;2023-04-23T00:47:46;12.10;99.90
32097;DHT22;18610;49.916;8.284;2023-04-23T00:50:13;12.00;99.90
32097;DHT22;18610;49.916;8.284;2023-04-23T00:52:40;12.10;99.90
32097;DHT22;18610;49.916;8.284;2023-04-23T00:55:08;12.00;99.90
32097;DHT22;18610;49.916;8.284;2023-04-23T00:57:35;12.00;99.90
32097;DHT22;18610;49.916;8.284;2023-04-23T01:00:04;12.00;99.90
32097;DHT22;18610;49.916;8.284;2023-04-23T01:02:34;12.00;99.90
32097;DHT22;18610;49.916;8.284;2023-04-23T01:05:03;12.00;99.90
32097;DHT22;18610;49.916;8.284;2023-04-23T01:07:32;12.00;99.90
32097;DHT22;18610;49.916;8.284;2023-04-23T01:09:59;12.00;99.90
32097;DHT22;18610;49.916;8.284;2023-04-23T01:12:26;12.00;99.90
32097;DHT22;18610;49.916;8.284;2023-04-23T01:14:53;12.00;99.90
32097;DHT22;18610;49.916;8.284;2023-04-23T01:17:20;12.00;99.90
32097;DHT22;18610;49.916;8.284;2023-04-23T01:19:48;12.00;99.90
32097;DHT22;18610;49.916;8.284;2023-04-23T01:22:16;12.00;99.90
32097;DHT22;18610;49.916;8.284;2023-04-23T01:24:43;12.00;99.90
32097;DHT22;18610;49.916;8.284;2023-04-23T01:27:10;12.00;99.90
32097;DHT22;18610;49.916;8.284;2023-04-23T01:29:38;12.00;99.90
32097;DHT22;18610;49.916;8.284;2023-04-23T01:32:06;12.00;99.90
32097;DHT22;18610;49.916;8.284;2023-04-23T01:34:34;12.00;99.90
32097;DHT22;18610;49.916;8.284;2023-04-23T01:37:01;11.90;99.90
32097;DHT22;18610;49.916;8.284;2023-04-23T01:39:30;11.90;99.90
32097;DHT22;18610;49.916;8.284;2023-04-23T01:41:57;11.90;99.90
32097;DHT22;18610;49.916;8.284;2023-04-23T01:44:24;11.90;99.90
32097;DHT22;18610;49.916;8.284;2023-04-23T01:46:52;11.90;99.90
32097;DHT22;18610;49.916;8.284;2023-04-23T01:49:18;11.90;99.90
32097;DHT22;18610;49.916;8.284;2023-04-23T01:51:45;11.90;99.90
32097;DHT22;18610;49.916;8.284;2023-04-23T01:54:12;11.90;99.90
32097;DHT22;18610;49.916;8.284;2023-04-23T01:56:40;11.90;99.90
32097;DHT22;18610;49.916;8.284;2023-04-23T01:59:07;12.00;99.90
32097;DHT22;18610;49.916;8.284;2023-04-23T02:01:40;12.00;99.90
32097;DHT22;18610;49.916;8.284;2023-04-23T02:04:09;12.00;99.90
32097;DHT22;18610;49.916;8.284;2023-04-23T02:06:35;12.00;99.90
32097;DHT22;18610;49.916;8.284;2023-04-23T02:09:02;12.00;99.90
32097;DHT22;18610;49.916;8.284;2023-04-23T02:11:30;11.90;99.90
32097;DHT22;18610;49.916;8.284;2023-04-23T02:13:58;11.90;99.90
32097;DHT22;18610;49.916;8.284;2023-04-23T02:16:25;12.00;99.90
32097;DHT22;18610;49.916;8.284;2023-04-23T02:18:52;12.00;99.90
32097;DHT22;18610;49.916;8.284;2023-04-23T02:21:19;12.00;99.90
32097;DHT22;18610;49.916;8.284;2023-04-23T02:23:46;12.00;99.90
32097;DHT22;18610;49.916;8.284;2023-04-23T02:26:13;12.00;99.90
32097;DHT22;18610;49.916;8.284;2023-04-23T02:28:40;11.90;99.90
32097;DHT22;18610;49.916;8.284;2023-04-23T02:31:08;11.90;99.90
32097;DHT22;18610;49.916;8.284;2023-04-23T02:33:35;11.90;99.90
32097;DHT22;18610;49.916;8.284;2023-04-23T02:36:01;11.90;99.90
32097;DHT22;18610;49.916;8.284;2023-04-23T02:38:28;11.90;99.90
32097;DHT22;18610;49.916;8.284;2023-04-23T02:40:55;11.80;99.90
32097;DHT22;18610;49.916;8.284;2023-04-23T02:43:21;11.90;99.90
32097;DHT22;18610;49.916;8.284;2023-04-23T02:45:48;11.90;99.90
32097;DHT22;18610;49.916;8.284;2023-04-23T02:48:16;11.90;99.90
32097;DHT22;18610;49.916;8.284;2023-04-23T02:50:43;11.90;99.90
32097;DHT22;18610;49.916;8.284;2023-04-23T02:53:11;11.90;99.90
32097;DHT22;18610;49.916;8.284;2023-04-23T02:55:38;11.80;99.90
32097;DHT22;18610;49.916;8.284;2023-04-23T02:58:04;11.80;99.90
32097;DHT22;18610;49.916;8.284;2023-04-23T03:00:31;11.80;99.90
32097;DHT22;18610;49.916;8.284;2023-04-23T03:02:58;11.80;99.90
32097;DHT22;18610;49.916;8.284;2023-04-23T03:05:26;11.70;99.90
32097;DHT22;18610;49.916;8.284;2023-04-23T03:07:53;11.70;99.90
32097;DHT22;18610;49.916;8.284;2023-04-23T03:10:20;11.70;99.90
32097;DHT22;18610;49.916;8.284;2023-04-23T03:12:47;11.70;99.90
32097;DHT22;18610;49.916;8.284;2023-04-23T03:15:13;11.70;99.90
32097;DHT22;18610;49.916;8.284;2023-04-23T03:17:40;11.70;99.90
32097;DHT22;18610;49.916;8.284;2023-04-23T03:20:08;11.70;99.90
32097;DHT22;18610;49.916;8.284;2023-04-23T03:22:40;11.70;99.90
32097;DHT22;18610;49.916;8.284;2023-04-23T03:25:07;11.70;99.90
32097;DHT22;18610;49.916;8.284;2023-04-23T03:27:34;11.70;99.90
32097;DHT22;18610;49.916;8.284;2023-04-23T03:30:01;11.70;99.90
32097;DHT22;18610;49.916;8.284;2023-04-23T03:32:27;11.70;99.90
32097;DHT22;18610;49.916;8.284;2023-04-23T03:34:56;11.70;99.90
32097;DHT22;18610;49.916;8.284;2023-04-23T03:37:23;11.70;99.90
32097;DHT22;18610;49.916;8.284;2023-04-23T03:39:51;11.70;99.90
32097;DHT22;18610;49.916;8.284;2023-04-23T03:42:18;11.80;99.90
32097;DHT22;18610;49.916;8.284;2023-04-23T03:44:45;11.80;99.90
32097;DHT22;18610;49.916;8.284;2023-04-23T03:47:11;11.90;99.90
32097;DHT22;18610;49.916;8.284;2023-04-23T03:49:38;11.90;99.90
32097;DHT22;18610;49.916;8.284;2023-04-23T03:52:05;12.00;99.90
32097;DHT22;18610;49.916;8.284;2023-04-23T03:54:32;12.00;99.90
32097;DHT22;18610;49.916;8.284;2023-04-23T03:57:00;12.00;99.90
32097;DHT22;18610;49.916;8.284;2023-04-23T03:59:27;12.00;99.90
32097;DHT22;18610;49.916;8.284;2023-04-23T04:01:53;11.90;99.90
32097;DHT22;18610;49.916;8.284;2023-04-23T04:04:20;11.90;99.90
32097;DHT22;18610;49.916;8.284;2023-04-23T04:06:47;11.90;99.90
32097;DHT22;18610;49.916;8.284;2023-04-23T04:09:14;11.80;99.90
32097;DHT22;18610;49.916;8.284;2023-04-23T04:11:41;11.80;99.90
32097;DHT22;18610;49.916;8.284;2023-04-23T04:14:09;11.80;99.90
32097;DHT22;18610;49.916;8.284;2023-04-23T04:16:36;11.70;99.90
32097;DHT22;18610;49.916;8.284;2023-04-23T04:19:02;11.70;99.90
32097;DHT22;18610;49.916;8.284;2023-04-23T04:21:30;11.60;99.90
32097;DHT22;18610;49.916;8.284;2023-04-23T04:23:58;11.60;99.90
32097;DHT22;18610;49.916;8.284;2023-04-23T04:26:26;11.60;99.90
32097;DHT22;18610;49.916;8.284;2023-04-23T04:28:53;11.60;99.90
32097;DHT22;18610;49.916;8.284;2023-04-23T04:31:21;11.50;99.90
32097;DHT22;18610;49.916;8.284;2023-04-23T04:33:47;11.50;99.90
32097;DHT22;18610;49.916;8.284;2023-04-23T04:36:14;11.50;99.90
32097;DHT22;18610;49.916;8.284;2023-04-23T04:38:41;11.50;99.90
32097;DHT22;18610;49.916;8.284;2023-04-23T04:41:08;11.50;99.90
32097;DHT22;18610;49.916;8.284;2023-04-23T04:43:35;11.40;99.90
32097;DHT22;18610;49.916;8.284;2023-04-23T04:46:02;11.40;99.90
32097;DHT22;18610;49.916;8.284;2023-04-23T04:48:30;11.40;99.90
32097;DHT22;18610;49.916;8.284;2023-04-23T04:50:58;11.30;99.90
32097;DHT22;18610;49.916;8.284;2023-04-23T04:53:24;11.30;99.90
32097;DHT22;18610;49.916;8.284;2023-04-23T04:55:51;11.30;99.90
32097;DHT22;18610;49.916;8.284;2023-04-23T04:58:18;11.30;99.90
32097;DHT22;18610;49.916;8.284;2023-04-23T05:00:44;11.30;99.90
32097;DHT22;18610;49.916;8.284;2023-04-23T05:03:13;11.30;99.90
32097;DHT22;18610;49.916;8.284;2023-04-23T05:05:41;11.30;99.90
32097;DHT22;18610;49.916;8.284;2023-04-23T05:08:09;11.30;99.90
32097;DHT22;18610;49.916;8.284;2023-04-23T05:10:36;11.30;99.90
32097;DHT22;18610;49.916;8.284;2023-04-23T05:13:03;11.30;99.90
32097;DHT22;18610;49.916;8.284;2023-04-23T05:15:30;11.20;99.90
32097;DHT22;18610;49.916;8.284;2023-04-23T05:17:57;11.20;99.90
32097;DHT22;18610;49.916;8.284;2023-04-23T05:20:23;11.10;99.90
32097;DHT22;18610;49.916;8.284;2023-04-23T05:22:52;11.20;99.90
32097;DHT22;18610;49.916;8.284;2023-04-23T05:25:19;11.20;99.90
32097;DHT22;18610;49.916;8.284;2023-04-23T05:27:48;11.10;99.90
32097;DHT22;18610;49.916;8.284;2023-04-23T05:30:15;11.10;99.90
32097;DHT22;18610;49.916;8.284;2023-04-23T05:32:42;11.10;99.90
32097;DHT22;18610;49.916;8.284;2023-04-23T05:35:09;11.10;99.90
32097;DHT22;18610;49.916;8.284;2023-04-23T05:37:36;11.10;99.90
32097;DHT22;18610;49.916;8.284;2023-04-23T05:40:05;11.10;99.90
32097;DHT22;18610;49.916;8.284;2023-04-23T05:42:33;11.20;99.90
32097;DHT22;18610;49.916;8.284;2023-04-23T05:45:00;11.20;99.90
32097;DHT22;18610;49.916;8.284;2023-04-23T05:47:27;11.30;99.90
32097;DHT22;18610;49.916;8.284;2023-04-23T05:49:54;11.30;99.90
32097;DHT22;18610;49.916;8.284;2023-04-23T05:52:22;11.40;99.90
32097;DHT22;18610;49.916;8.284;2023-04-23T05:54:49;11.40;99.90
32097;DHT22;18610;49.916;8.284;2023-04-23T05:57:17;11.60;99.90
32097;DHT22;18610;49.916;8.284;2023-04-23T05:59:44;11.60;99.90
32097;DHT22;18610;49.916;8.284;2023-04-23T06:02:11;11.70;99.90
32097;DHT22;18610;49.916;8.284;2023-04-23T06:04:37;11.70;99.90
32097;DHT22;18610;49.916;8.284;2023-04-23T06:07:05;11.90;99.90
32097;DHT22;18610;49.916;8.284;2023-04-23T06:09:32;11.90;99.90
32097;DHT22;18610;49.916;8.284;2023-04-23T06:11:59;12.00;99.90
32097;DHT22;18610;49.916;8.284;2023-04-23T06:14:27;12.00;99.90
32097;DHT22;18610;49.916;8.284;2023-04-23T06:16:54;12.10;99.90
32097;DHT22;18610;49.916;8.284;2023-04-23T06:19:20;12.10;99.90
32097;DHT22;18610;49.916;8.284;2023-04-23T06:21:50;12.20;99.90
32097;DHT22;18610;49.916;8.284;2023-04-23T06:24:16;12.20;99.90
32097;DHT22;18610;49.916;8.284;2023-04-23T06:26:43;12.40;99.90
32097;DHT22;18610;49.916;8.284;2023-04-23T06:29:13;12.40;99.90
32097;DHT22;18610;49.916;8.284;2023-04-23T06:31:41;12.60;99.90
32097;DHT22;18610;49.916;8.284;2023-04-23T06:34:08;12.60;99.90
32097;DHT22;18610;49.916;8.284;2023-04-23T06:36:34;12.70;99.90
32097;DHT22;18610;49.916;8.284;2023-04-23T06:39:01;12.80;99.90
32097;DHT22;18610;49.916;8.284;2023-04-23T06:41:28;12.90;99.90
32097;DHT22;18610;49.916;8.284;2023-04-23T06:43:54;13.00;99.90
32097;DHT22;18610;49.916;8.284;2023-04-23T06:46:21;13.10;99.90
32097;DHT22;18610;49.916;8.284;2023-04-23T06:48:49;13.20;99.90
32097;DHT22;18610;49.916;8.284;2023-04-23T06:51:16;13.20;99.90
32097;DHT22;18610;49.916;8.284;2023-04-23T06:53:42;13.40;99.90
32097;DHT22;18610;49.916;8.284;2023-04-23T06:56:09;13.50;99.90
32097;DHT22;18610;49.916;8.284;2023-04-23T06:58:36;13.50;99.90
32097;DHT22;18610;49.916;8.284;2023-04-23T07:01:03;13.70;99.90
32097;DHT22;18610;49.916;8.284;2023-04-23T07:03:32;13.80;99.90
32097;DHT22;18610;49.916;8.284;2023-04-23T07:06:00;13.90;99.90
32097;DHT22;18610;49.916;8.284;2023-04-23T07:08:26;13.90;99.90
32097;DHT22;18610;49.916;8.284;2023-04-23T07:10:53;14.10;99.90
32097;DHT22;18610;49.916;8.284;2023-04-23T07:13:20;14.20;99.90
32097;DHT22;18610;49.916;8.284;2023-04-23T07:15:46;14.20;99.90
32097;DHT22;18610;49.916;8.284;2023-04-23T07:18:14;14.30;99.90
32097;DHT22;18610;49.916;8.284;2023-04-23T07:20:40;14.40;99.90
32097;DHT22;18610;49.916;8.284;2023-04-23T07:23:09;14.60;99.90
32097;DHT22;18610;49.916;8.284;2023-04-23T07:25:36;14.70;99.90
32097;DHT22;18610;49.916;8.284;2023-04-23T07:28:03;14.80;99.90
32097;DHT22;18610;49.916;8.284;2023-04-23T07:30:30;14.80;99.90
32097;DHT22;18610;49.916;8.284;2023-04-23T07:32:56;14.80;99.90
32097;DHT22;18610;49.916;8.284;2023-04-23T07:35:23;14.80;99.90
32097;DHT22;18610;49.916;8.284;2023-04-23T07:37:51;14.80;99.90
32097;DHT22;18610;49.916;8.284;2023-04-23T07:40:21;14.70;99.90
32097;DHT22;18610;49.916;8.284;2023-04-23T07:42:47;14.80;99.90
32097;DHT22;18610;49.916;8.284;2023-04-23T07:45:14;14.70;99.90
32097;DHT22;18610;49.916;8.284;2023-04-23T07:47:41;14.70;99.90
32097;DHT22;18610;49.916;8.284;2023-04-23T07:50:11;14.70;99.90
32097;DHT22;18610;49.916;8.284;2023-04-23T07:52:38;14.80;99.90
32097;DHT22;18610;49.916;8.284;2023-04-23T07:55:05;14.80;99.90
32097;DHT22;18610;49.916;8.284;2023-04-23T07:57:34;14.80;99.90
32097;DHT22;18610;49.916;8.284;2023-04-23T08:00:00;14.80;99.90
32097;DHT22;18610;49.916;8.284;2023-04-23T08:02:27;15.00;99.90
32097;DHT22;18610;49.916;8.284;2023-04-23T08:04:54;15.20;99.90
32097;DHT22;18610;49.916;8.284;2023-04-23T08:07:21;15.30;99.90
32097;DHT22;18610;49.916;8.284;2023-04-23T08:09:47;15.40;99.90
32097;DHT22;18610;49.916;8.284;2023-04-23T08:12:14;15.50;99.90
32097;DHT22;18610;49.916;8.284;2023-04-23T08:14:43;15.50;99.90
32097;DHT22;18610;49.916;8.284;2023-04-23T08:17:11;15.40;99.90
32097;DHT22;18610;49.916;8.284;2023-04-23T08:19:38;15.50;99.90
32097;DHT22;18610;49.916;8.284;2023-04-23T08:22:05;15.60;99.90
32097;DHT22;18610;49.916;8.284;2023-04-23T08:24:32;15.80;99.90
32097;DHT22;18610;49.916;8.284;2023-04-23T08:27:00;16.00;99.90
32097;DHT22;18610;49.916;8.284;2023-04-23T08:29:27;16.20;99.90
32097;DHT22;18610;49.916;8.284;2023-04-23T08:31:55;16.20;99.90
32097;DHT22;18610;49.916;8.284;2023-04-23T08:34:22;16.20;99.90
32097;DHT22;18610;49.916;8.284;2023-04-23T08:36:49;16.40;99.90
32097;DHT22;18610;49.916;8.284;2023-04-23T08:39:15;16.60;99.90
32097;DHT22;18610;49.916;8.284;2023-04-23T08:41:44;16.80;99.90
32097;DHT22;18610;49.916;8.284;2023-04-23T08:44:17;17.00;99.90
32097;DHT22;18610;49.916;8.284;2023-04-23T08:46:44;17.10;99.90
32097;DHT22;18610;49.916;8.284;2023-04-23T08:49:13;17.00;99.90
32097;DHT22;18610;49.916;8.284;2023-04-23T08:51:47;17.10;99.90
32097;DHT22;18610;49.916;8.284;2023-04-23T08:54:15;17.00;99.90
32097;DHT22;18610;49.916;8.284;2023-04-23T08:56:44;17.10;99.90
32097;DHT22;18610;49.916;8.284;2023-04-23T08:59:12;17.20;99.90
32097;DHT22;18610;49.916;8.284;2023-04-23T09:01:40;16.90;99.90
32097;DHT22;18610;49.916;8.284;2023-04-23T09:04:07;16.80;99.90
32097;DHT22;18610;49.916;8.284;2023-04-23T09:06:36;16.90;99.90
32097;DHT22;18610;49.916;8.284;2023-04-23T09:09:03;17.10;99.90
32097;DHT22;18610;49.916;8.284;2023-04-23T09:11:31;17.10;99.90
32097;DHT22;18610;49.916;8.284;2023-04-23T09:13:59;17.00;99.90
32097;DHT22;18610;49.916;8.284;2023-04-23T09:16:26;16.90;99.90
32097;DHT22;18610;49.916;8.284;2023-04-23T09:18:53;16.80;99.90
32097;DHT22;18610;49.916;8.284;2023-04-23T09:21:19;16.70;99.90
32097;DHT22;18610;49.916;8.284;2023-04-23T09:23:50;16.60;99.90
32097;DHT22;18610;49.916;8.284;2023-04-23T09:26:18;16.40;99.90
32097;DHT22;18610;49.916;8.284;2023-04-23T09:28:48;16.30;99.90
32097;DHT22;18610;49.916;8.284;2023-04-23T09:31:16;16.20;99.90
32097;DHT22;18610;49.916;8.284;2023-04-23T09:33:49;16.30;99.90
32097;DHT22;18610;49.916;8.284;2023-04-23T09:36:19;16.70;99.90
32097;DHT22;18610;49.916;8.284;2023-04-23T09:38:47;17.10;99.90
32097;DHT22;18610;49.916;8.284;2023-04-23T09:41:23;17.40;99.90
32097;DHT22;18610;49.916;8.284;2023-04-23T09:43:52;17.60;99.90
32097;DHT22;18610;49.916;8.284;2023-04-23T09:46:30;17.60;99.90
32097;DHT22;18610;49.916;8.284;2023-04-23T09:48:57;17.50;99.90
32097;DHT22;18610;49.916;8.284;2023-04-23T09:51:24;17.60;99.90
32097;DHT22;18610;49.916;8.284;2023-04-23T09:53:51;17.80;99.90
32097;DHT22;18610;49.916;8.284;2023-04-23T09:56:19;17.70;99.90
32097;DHT22;18610;49.916;8.284;2023-04-23T09:58:47;17.60;99.90
32097;DHT22;18610;49.916;8.284;2023-04-23T10:01:14;17.60;99.90
32097;DHT22;18610;49.916;8.284;2023-04-23T10:03:41;17.50;99.90
32097;DHT22;18610;49.916;8.284;2023-04-23T10:06:12;17.50;99.90
32097;DHT22;18610;49.916;8.284;2023-04-23T10:08:39;17.50;99.90
32097;DHT22;18610;49.916;8.284;2023-04-23T10:11:07;17.60;99.90
32097;DHT22;18610;49.916;8.284;2023-04-23T10:13:34;17.80;99.90
32097;DHT22;18610;49.916;8.284;2023-04-23T10:16:03;17.80;99.90
32097;DHT22;18610;49.916;8.284;2023-04-23T10:18:31;18.00;99.90
32097;DHT22;18610;49.916;8.284;2023-04-23T10:21:00;18.00;99.90
32097;DHT22;18610;49.916;8.284;2023-04-23T10:23:28;18.00;99.90
32097;DHT22;18610;49.916;8.284;2023-04-23T10:25:56;18.00;99.90
32097;DHT22;18610;49.916;8.284;2023-04-23T10:28:25;18.00;99.90
32097;DHT22;18610;49.916;8.284;2023-04-23T10:30:56;17.90;99.90
32097;DHT22;18610;49.916;8.284;2023-04-23T10:33:25;18.00;99.90
32097;DHT22;18610;49.916;8.284;2023-04-23T10:35:55;18.00;99.90
32097;DHT22;18610;49.916;8.284;2023-04-23T10:38:22;18.20;99.90
32097;DHT22;18610;49.916;8.284;2023-04-23T10:40:54;18.30;99.90
32097;DHT22;18610;49.916;8.284;2023-04-23T10:43:22;18.50;99.90
32097;DHT22;18610;49.916;8.284;2023-04-23T10:45:49;18.50;99.90
32097;DHT22;18610;49.916;8.284;2023-04-23T10:48:16;18.70;99.90
32097;DHT22;18610;49.916;8.284;2023-04-23T10:50:44;18.60;99.90
32097;DHT22;18610;49.916;8.284;2023-04-23T10:53:18;18.60;99.90
32097;DHT22;18610;49.916;8.284;2023-04-23T10:55:46;18.50;99.90
32097;DHT22;18610;49.916;8.284;2023-04-23T10:58:12;18.40;99.90
32097;DHT22;18610;49.916;8.284;2023-04-23T11:00:44;18.30;99.90
32097;DHT22;18610;49.916;8.284;2023-04-23T11:03:31;18.20;99.90
32097;DHT22;18610;49.916;8.284;2023-04-23T11:06:05;18.10;99.90
32097;DHT22;18610;49.916;8.284;2023-04-23T11:08:34;18.10;99.90
32097;DHT22;18610;49.916;8.284;2023-04-23T11:11:07;18.10;99.90
32097;DHT22;18610;49.916;8.284;2023-04-23T11:13:34;18.10;99.90
32097;DHT22;18610;49.916;8.284;2023-04-23T11:16:14;18.00;99.90
32097;DHT22;18610;49.916;8.284;2023-04-23T11:18:56;18.00;99.90
32097;DHT22;18610;49.916;8.284;2023-04-23T11:21:55;18.00;99.90
32097;DHT22;18610;49.916;8.284;2023-04-23T11:24:22;18.00;99.90
32097;DHT22;18610;49.916;8.284;2023-04-23T11:26:51;18.00;99.90
32097;DHT22;18610;49.916;8.284;2023-04-23T11:29:22;18.00;99.90
32097;DHT22;18610;49.916;8.284;2023-04-23T11:31:50;18.20;99.90
32097;DHT22;18610;49.916;8.284;2023-04-23T11:34:17;18.50;99.90
32097;DHT22;18610;49.916;8.284;2023-04-23T11:36:46;18.80;99.90
32097;DHT22;18610;49.916;8.284;2023-04-23T11:39:13;19.20;99.90
32097;DHT22;18610;49.916;8.284;2023-04-23T11:41:40;19.50;99.90
32097;DHT22;18610;49.916;8.284;2023-04-23T11:44:08;19.70;99.90
32097;DHT22;18610;49.916;8.284;2023-04-23T11:46:36;19.70;99.90
32097;DHT22;18610;49.916;8.284;2023-04-23T11:49:03;19.80;99.90
32097;DHT22;18610;49.916;8.284;2023-04-23T11:51:30;19.80;99.90
32097;DHT22;18610;49.916;8.284;2023-04-23T11:54:03;19.60;99.90
32097;DHT22;18610;49.916;8.284;2023-04-23T11:56:31;19.60;99.90
32097;DHT22;18610;49.916;8.284;2023-04-23T11:58:59;19.40;99.90
32097;DHT22;18610;49.916;8.284;2023-04-23T12:01:42;19.40;99.90
32097;DHT22;18610;49.916;8.284;2023-04-23T12:04:13;19.50;99.90
32097;DHT22;18610;49.916;8.284;2023-04-23T12:06:41;19.80;99.90
32097;DHT22;18610;49.916;8.284;2023-04-23T12:09:10;20.00;99.90
32097;DHT22;18610;49.916;8.284;2023-04-23T12:11:38;20.20;99.90
32097;DHT22;18610;49.916;8.284;2023-04-23T12:14:06;20.20;99.90
32097;DHT22;18610;49.916;8.284;2023-04-23T12:16:34;20.20;99.90
32097;DHT22;18610;49.916;8.284;2023-04-23T12:19:01;20.20;99.90
32097;DHT22;18610;49.916;8.284;2023-04-23T12:21:28;20.40;99.90
32097;DHT22;18610;49.916;8.284;2023-04-23T12:23:56;20.80;99.90
32097;DHT22;18610;49.916;8.284;2023-04-23T12:26:25;21.20;98.30
32097;DHT22;18610;49.916;8.284;2023-04-23T12:28:52;21.30;98.40
32097;DHT22;18610;49.916;8.284;2023-04-23T12:31:20;21.30;95.90
32097;DHT22;18610;49.916;8.284;2023-04-23T12:33:57;21.40;95.20
32097;DHT22;18610;49.916;8.284;2023-04-23T12:36:26;21.40;96.60
32097;DHT22;18610;49.916;8.284;2023-04-23T12:38:54;21.10;94.30
32097;DHT22;18610;49.916;8.284;2023-04-23T12:41:22;20.80;94.80
32097;DHT22;18610;49.916;8.284;2023-04-23T12:43:50;20.60;93.90
32097;DHT22;18610;49.916;8.284;2023-04-23T12:46:16;20.40;94.80
32097;DHT22;18610;49.916;8.284;2023-04-23T12:48:43;20.40;97.60
32097;DHT22;18610;49.916;8.284;2023-04-23T12:51:10;20.40;95.30
32097;DHT22;18610;49.916;8.284;2023-04-23T12:53:36;20.40;95.30
32097;DHT22;18610;49.916;8.284;2023-04-23T12:56:03;20.10;95.10
32097;DHT22;18610;49.916;8.284;2023-04-23T12:58:30;20.00;95.70
32097;DHT22;18610;49.916;8.284;2023-04-23T13:00:58;19.90;93.70
32097;DHT22;18610;49.916;8.284;2023-04-23T13:03:25;19.80;93.80
32097;DHT22;18610;49.916;8.284;2023-04-23T13:05:51;20.20;93.80
32097;DHT22;18610;49.916;8.284;2023-04-23T13:08:18;20.60;93.70
32097;DHT22;18610;49.916;8.284;2023-04-23T13:10:45;21.10;92.00
32097;DHT22;18610;49.916;8.284;2023-04-23T13:13:11;21.50;91.10
32097;DHT22;18610;49.916;8.284;2023-04-23T13:15:38;21.80;89.80
32097;DHT22;18610;49.916;8.284;2023-04-23T13:18:06;22.00;85.40
32097;DHT22;18610;49.916;8.284;2023-04-23T13:20:33;22.20;86.90
32097;DHT22;18610;49.916;8.284;2023-04-23T13:23:00;22.10;83.00
32097;DHT22;18610;49.916;8.284;2023-04-23T13:25:27;21.90;84.70
32097;DHT22;18610;49.916;8.284;2023-04-23T13:27:54;22.00;84.30
32097;DHT22;18610;49.916;8.284;2023-04-23T13:30:21;21.90;86.20
32097;DHT22;18610;49.916;8.284;2023-04-23T13:32:48;21.80;87.80
32097;DHT22;18610;49.916;8.284;2023-04-23T13:35:16;21.70;83.50
32097;DHT22;18610;49.916;8.284;2023-04-23T13:37:43;21.70;83.60
32097;DHT22;18610;49.916;8.284;2023-04-23T13:40:10;21.70;81.00
32097;DHT22;18610;49.916;8.284;2023-04-23T13:42:37;21.80;83.50
32097;DHT22;18610;49.916;8.284;2023-04-23T13:45:04;22.00;82.10
32097;DHT22;18610;49.916;8.284;2023-04-23T13:47:31;22.40;80.50
32097;DHT22;18610;49.916;8.284;2023-04-23T13:49:59;22.70;77.90
32097;DHT22;18610;49.916;8.284;2023-04-23T13:52:28;22.70;79.90
32097;DHT22;18610;49.916;8.284;2023-04-23T13:54:56;22.70;79.60
32097;DHT22;18610;49.916;8.284;2023-04-23T13:57:24;22.70;74.50
32097;DHT22;18610;49.916;8.284;2023-04-23T13:59:51;22.60;78.10
32097;DHT22;18610;49.916;8.284;2023-04-23T14:02:19;22.60;78.00
32097;DHT22;18610;49.916;8.284;2023-04-23T14:04:46;22.70;78.30
32097;DHT22;18610;49.916;8.284;2023-04-23T14:07:13;22.50;73.40
32097;DHT22;18610;49.916;8.284;2023-04-23T14:09:41;22.30;75.30
32097;DHT22;18610;49.916;8.284;2023-04-23T14:12:08;22.10;74.30
32097;DHT22;18610;49.916;8.284;2023-04-23T14:14:35;22.10;78.60
32097;DHT22;18610;49.916;8.284;2023-04-23T14:17:02;22.00;76.30
32097;DHT22;18610;49.916;8.284;2023-04-23T14:19:29;22.00;79.20
32097;DHT22;18610;49.916;8.284;2023-04-23T14:21:58;22.00;78.20
32097;DHT22;18610;49.916;8.284;2023-04-23T14:24:27;22.00;78.00
32097;DHT22;18610;49.916;8.284;2023-04-23T14:26:55;21.80;76.90
32097;DHT22;18610;49.916;8.284;2023-04-23T14:29:23;21.60;80.20
32097;DHT22;18610;49.916;8.284;2023-04-23T14:31:54;21.40;83.30
32097;DHT22;18610;49.916;8.284;2023-04-23T14:34:21;21.30;80.30
32097;DHT22;18610;49.916;8.284;2023-04-23T14:36:48;21.20;78.80
32097;DHT22;18610;49.916;8.284;2023-04-23T14:39:17;21.10;81.40
32097;DHT22;18610;49.916;8.284;2023-04-23T14:41:43;20.90;82.70
32097;DHT22;18610;49.916;8.284;2023-04-23T14:44:11;20.70;84.30
32097;DHT22;18610;49.916;8.284;2023-04-23T14:46:38;20.60;84.70
32097;DHT22;18610;49.916;8.284;2023-04-23T14:49:05;20.40;80.10
32097;DHT22;18610;49.916;8.284;2023-04-23T14:51:32;20.20;82.30
32097;DHT22;18610;49.916;8.284;2023-04-23T14:53:58;20.20;86.10
32097;DHT22;18610;49.916;8.284;2023-04-23T14:56:25;20.10;86.10
32097;DHT22;18610;49.916;8.284;2023-04-23T14:58:52;20.10;85.70
32097;DHT22;18610;49.916;8.284;2023-04-23T15:01:20;20.00;86.10
32097;DHT22;18610;49.916;8.284;2023-04-23T15:03:46;19.80;85.60
32097;DHT22;18610;49.916;8.284;2023-04-23T15:06:13;19.70;87.90
32097;DHT22;18610;49.916;8.284;2023-04-23T15:08:39;19.50;90.10
32097;DHT22;18610;49.916;8.284;2023-04-23T15:11:06;19.40;88.70
32097;DHT22;18610;49.916;8.284;2023-04-23T15:13:43;19.30;90.70
32097;DHT22;18610;49.916;8.284;2023-04-23T15:16:26;19.20;90.90
32097;DHT22;18610;49.916;8.284;2023-04-23T15:18:55;19.10;91.90
32097;DHT22;18610;49.916;8.284;2023-04-23T15:21:22;19.00;92.90
32097;DHT22;18610;49.916;8.284;2023-04-23T15:23:49;18.90;93.70
32097;DHT22;18610;49.916;8.284;2023-04-23T15:26:16;18.80;94.10
32097;DHT22;18610;49.916;8.284;2023-04-23T15:28:42;18.70;92.90
32097;DHT22;18610;49.916;8.284;2023-04-23T15:31:10;18.60;93.10
32097;DHT22;18610;49.916;8.284;2023-04-23T15:33:38;18.50;93.20